createdAt,value
2019-03-30T00:01:16.011Z,24.87
2019-03-30T00:04:05.600Z,24.77
2019-03-30T00:06:55.683Z,23.93
2019-03-30T00:09:45.979Z,24.60
2019-03-30T00:12:35.541Z,25.17
2019-03-30T00:15:26.270Z,24.20
2019-03-30T00:18:16.612Z,24.07
2019-03-30T00:21:06.948Z,25.30
2019-03-30T00:23:57.178Z,26.27
2019-03-30T00:26:46.389Z,24.37
2019-03-30T00:29:36.835Z,25.07
2019-03-30T00:32:26.907Z,26.87
2019-03-30T00:35:16.142Z,26.07
2019-03-30T00:38:05.655Z,24.47
2019-03-30T00:40:56.159Z,24.50
2019-03-30T00:43:46.587Z,25.80
2019-03-30T00:46:37.800Z,24.73
2019-03-30T00:49:27.212Z,26.00
2019-03-30T00:52:17.221Z,24.93
2019-03-30T00:55:06.967Z,24.80
2019-03-30T00:57:57.514Z,24.80
2019-03-30T01:00:46.792Z,24.00
2019-03-30T01:03:37.175Z,25.87
2019-03-30T01:06:27.593Z,24.03
2019-03-30T01:09:17.926Z,24.60
2019-03-30T01:12:07.154Z,24.33
2019-03-30T01:14:56.959Z,25.20
2019-03-30T01:17:47.155Z,25.10
2019-03-30T01:20:36.846Z,24.87
2019-03-30T01:23:26.857Z,25.17
2019-03-30T01:26:16.987Z,25.40
2019-03-30T01:29:07.451Z,26.87
2019-03-30T01:31:57.068Z,24.40
2019-03-30T01:34:47.368Z,26.20
2019-03-30T01:37:36.892Z,27.07
2019-03-30T01:40:27.196Z,25.77
2019-03-30T01:43:16.826Z,25.00
2019-03-30T01:46:07.098Z,27.90
2019-03-30T01:48:57.159Z,25.83
2019-03-30T01:51:47.721Z,25.80
2019-03-30T01:54:37.875Z,26.10
2019-03-30T01:57:27.882Z,25.73
2019-03-30T02:00:18.522Z,25.67
2019-03-30T02:03:07.987Z,24.50
2019-03-30T02:05:57.374Z,26.63
2019-03-30T02:08:47.686Z,24.10
2019-03-30T02:11:37.191Z,24.80
2019-03-30T02:14:27.279Z,23.67
2019-03-30T02:17:20.157Z,24.50
2019-03-30T02:20:16.156Z,25.37
2019-03-30T02:23:07.655Z,25.27
2019-03-30T02:25:57.934Z,27.00
2019-03-30T02:28:49.079Z,24.80
2019-03-30T02:31:38.352Z,24.90
2019-03-30T02:34:28.466Z,24.97
2019-03-30T02:37:17.861Z,24.03
2019-03-30T02:40:09.516Z,25.20
2019-03-30T02:42:59.328Z,25.03
2019-03-30T02:45:49.319Z,24.60
2019-03-30T02:48:38.907Z,23.90
2019-03-30T02:51:28.902Z,23.37
2019-03-30T02:54:19.195Z,21.70
2019-03-30T02:57:09.669Z,22.50
2019-03-30T02:59:59.942Z,23.00
2019-03-30T03:02:49.442Z,23.93
2019-03-30T03:05:39.563Z,24.70
2019-03-30T03:08:29.536Z,23.83
2019-03-30T03:11:19.855Z,25.50
2019-03-30T03:14:09.459Z,25.10
2019-03-30T03:16:58.691Z,25.50
2019-03-30T03:19:49.047Z,23.27
2019-03-30T03:22:38.421Z,21.53
2019-03-30T03:25:28.040Z,21.30
2019-03-30T03:28:18.293Z,22.47
2019-03-30T03:31:08.484Z,22.40
2019-03-30T03:33:59.142Z,21.50
2019-03-30T03:36:49.341Z,22.30
2019-03-30T03:39:40.366Z,22.10
2019-03-30T03:42:30.687Z,22.70
2019-03-30T03:45:20.335Z,24.37
2019-03-30T03:48:09.794Z,21.53
2019-03-30T03:51:03.971Z,22.03
2019-03-30T03:53:53.844Z,23.40
2019-03-30T03:56:45.918Z,22.73
2019-03-30T03:59:37.441Z,22.30
2019-03-30T04:02:30.568Z,23.33
2019-03-30T04:05:23.243Z,22.43
2019-03-30T04:08:14.521Z,21.83
2019-03-30T04:11:05.440Z,21.87
2019-03-30T04:13:57.462Z,22.73
2019-03-30T04:16:47.638Z,19.77
2019-03-30T04:19:37.815Z,21.80
2019-03-30T04:22:27.704Z,24.07
2019-03-30T04:25:17.274Z,21.80
2019-03-30T04:28:07.027Z,22.20
2019-03-30T04:30:57.359Z,20.90
2019-03-30T04:33:47.715Z,22.77
2019-03-30T04:36:37.394Z,21.63
2019-03-30T04:39:27.719Z,21.10
2019-03-30T04:42:17.003Z,20.67
2019-03-30T04:45:09.159Z,20.90
2019-03-30T04:47:59.513Z,22.50
2019-03-30T04:50:49.442Z,20.73
2019-03-30T04:53:39.710Z,20.67
2019-03-30T04:56:29.980Z,20.77
2019-03-30T04:59:19.783Z,22.00
2019-03-30T05:02:09.911Z,20.90
2019-03-30T05:05:00.350Z,19.63
2019-03-30T05:07:49.639Z,20.77
2019-03-30T05:10:39.723Z,22.57
2019-03-30T05:13:28.918Z,21.13
2019-03-30T05:16:19.192Z,20.10
2019-03-30T05:19:09.140Z,21.73
2019-03-30T05:22:11.487Z,21.67
2019-03-30T05:24:50.665Z,20.77
2019-03-30T05:27:40.301Z,20.57
2019-03-30T05:30:30.500Z,20.80
2019-03-30T05:33:20.568Z,20.90
2019-03-30T05:36:10.578Z,22.20
2019-03-30T05:39:00.199Z,21.80
2019-03-30T05:41:50.146Z,21.00
2019-03-30T05:44:41.064Z,22.40
2019-03-30T05:47:31.096Z,21.30
2019-03-30T05:50:20.630Z,22.17
2019-03-30T05:53:10.653Z,20.70
2019-03-30T05:56:00.968Z,21.47
2019-03-30T05:58:51.032Z,21.10
2019-03-30T06:01:41.263Z,21.57
2019-03-30T06:04:31.441Z,20.67
2019-03-30T06:07:21.062Z,19.60
2019-03-30T06:10:11.459Z,21.97
2019-03-30T06:13:01.791Z,20.87
2019-03-30T06:15:50.971Z,20.70
2019-03-30T06:18:44.039Z,20.77
2019-03-30T06:21:34.565Z,20.20
2019-03-30T06:24:24.967Z,19.30
2019-03-30T06:27:15.216Z,19.80
2019-03-30T06:30:15.651Z,20.17
2019-03-30T06:33:04.836Z,19.87
2019-03-30T06:35:54.442Z,20.00
2019-03-30T06:38:44.496Z,19.83
2019-03-30T06:41:34.586Z,20.47
2019-03-30T06:44:24.231Z,21.03
2019-03-30T06:47:14.439Z,19.27
2019-03-30T06:50:04.267Z,20.47
2019-03-30T06:52:58.103Z,19.80
2019-03-30T06:55:45.210Z,20.43
2019-03-30T06:58:35.522Z,19.90
2019-03-30T07:01:26.856Z,18.47
2019-03-30T07:04:17.367Z,18.97
2019-03-30T07:07:09.836Z,19.10
2019-03-30T07:10:02.943Z,17.70
2019-03-30T07:12:54.391Z,17.77
2019-03-30T07:15:46.892Z,18.73
2019-03-30T07:18:37.178Z,17.93
2019-03-30T07:21:27.524Z,17.53
2019-03-30T07:24:17.922Z,17.87
2019-03-30T07:27:08.012Z,17.07
2019-03-30T07:29:58.071Z,16.60
2019-03-30T07:32:49.474Z,16.87
2019-03-30T07:35:39.701Z,17.70
2019-03-30T07:38:30.483Z,16.77
2019-03-30T07:41:20.809Z,16.70
2019-03-30T07:44:11.352Z,16.17
2019-03-30T07:47:01.066Z,16.90
2019-03-30T07:49:51.377Z,16.30
2019-03-30T07:52:41.885Z,16.53
2019-03-30T07:55:32.273Z,15.60
2019-03-30T07:58:21.787Z,15.00
2019-03-30T08:01:12.094Z,15.33
2019-03-30T08:04:02.126Z,14.97
2019-03-30T08:06:52.015Z,14.20
2019-03-30T08:09:41.717Z,14.20
2019-03-30T08:12:31.210Z,13.70
2019-03-30T08:15:20.852Z,14.30
2019-03-30T08:18:12.738Z,14.50
2019-03-30T08:21:03.273Z,14.10
2019-03-30T08:23:53.527Z,13.77
2019-03-30T08:26:44.165Z,13.17
2019-03-30T08:29:34.022Z,14.00
2019-03-30T08:32:24.364Z,13.37
2019-03-30T08:35:15.455Z,12.30
2019-03-30T08:38:05.924Z,12.67
2019-03-30T08:40:56.319Z,12.90
2019-03-30T08:43:45.802Z,12.97
2019-03-30T08:46:36.029Z,12.60
2019-03-30T08:49:26.595Z,12.60
2019-03-30T08:52:16.602Z,12.60
2019-03-30T08:55:08.732Z,12.60
2019-03-30T08:57:58.989Z,12.50
2019-03-30T09:00:51.574Z,12.20
2019-03-30T09:03:41.773Z,12.60
2019-03-30T09:06:31.800Z,13.40
2019-03-30T09:09:21.430Z,12.80
2019-03-30T09:12:11.531Z,12.73
2019-03-30T09:15:01.468Z,12.70
2019-03-30T09:17:52.256Z,12.27
2019-03-30T09:20:42.508Z,12.50
2019-03-30T09:23:32.611Z,12.00
2019-03-30T09:26:22.758Z,12.20
2019-03-30T09:29:12.751Z,12.40
2019-03-30T09:32:13.642Z,11.83
2019-03-30T09:34:54.259Z,12.47
2019-03-30T09:37:44.512Z,11.80
2019-03-30T09:40:34.071Z,11.93
2019-03-30T09:43:24.550Z,11.90
2019-03-30T09:46:16.486Z,11.67
2019-03-30T09:49:06.424Z,11.87
2019-03-30T09:51:57.007Z,11.60
2019-03-30T09:54:47.477Z,12.20
2019-03-30T09:57:38.074Z,11.18
2019-03-30T10:00:28.567Z,11.50
2019-03-30T10:03:18.675Z,11.33
2019-03-30T10:06:08.972Z,10.83
2019-03-30T10:08:59.548Z,11.35
2019-03-30T10:11:49.628Z,11.00
2019-03-30T10:14:40.539Z,11.65
2019-03-30T10:17:30.460Z,11.15
2019-03-30T10:20:20.699Z,11.10
2019-03-30T10:23:11.667Z,11.08
2019-03-30T10:26:02.108Z,10.80
2019-03-30T10:28:52.028Z,10.65
2019-03-30T10:31:42.831Z,11.22
2019-03-30T10:34:32.966Z,12.07
2019-03-30T10:37:23.688Z,11.60
2019-03-30T10:40:14.290Z,12.03
2019-03-30T10:43:04.480Z,11.65
2019-03-30T10:45:55.329Z,10.95
2019-03-30T10:48:45.771Z,11.33
2019-03-30T10:51:37.784Z,11.15
2019-03-30T10:54:28.553Z,11.68
2019-03-30T10:57:19.324Z,11.70
2019-03-30T11:00:12.058Z,11.30
2019-03-30T11:03:02.596Z,11.85
2019-03-30T11:05:53.068Z,18.48
2019-03-30T11:08:43.070Z,12.93
2019-03-30T11:11:33.905Z,12.43
2019-03-30T11:14:24.753Z,13.50
2019-03-30T11:17:14.986Z,11.95
2019-03-30T11:20:05.185Z,12.88
2019-03-30T11:22:54.690Z,12.13
2019-03-30T11:25:45.488Z,13.72
2019-03-30T11:28:36.997Z,15.93
2019-03-30T11:31:26.261Z,17.40
2019-03-30T11:34:16.776Z,18.70
2019-03-30T11:37:06.387Z,17.63
2019-03-30T11:39:57.675Z,17.87
2019-03-30T11:42:47.448Z,19.83
2019-03-30T11:45:37.549Z,18.27
2019-03-30T11:48:27.879Z,17.87
2019-03-30T11:51:18.092Z,18.17
2019-03-30T11:54:08.149Z,18.17
2019-03-30T11:56:57.736Z,18.60
2019-03-30T11:59:47.205Z,18.30
2019-03-30T12:02:37.388Z,17.40
2019-03-30T12:05:26.861Z,17.20
2019-03-30T12:08:16.839Z,17.47
2019-03-30T12:11:07.152Z,17.47
2019-03-30T12:13:57.291Z,16.30
2019-03-30T12:16:47.659Z,15.13
2019-03-30T12:19:38.207Z,15.17
2019-03-30T12:22:28.676Z,14.77
2019-03-30T12:25:18.843Z,13.57
2019-03-30T12:28:08.327Z,13.87
2019-03-30T12:30:58.363Z,15.87
2019-03-30T12:33:48.379Z,14.77
2019-03-30T12:36:38.344Z,14.73
2019-03-30T12:39:28.692Z,15.43
2019-03-30T12:42:18.982Z,15.10
2019-03-30T12:45:13.103Z,14.27
2019-03-30T12:48:03.103Z,15.50
2019-03-30T12:50:53.484Z,14.47
2019-03-30T12:53:50.004Z,14.40
2019-03-30T12:56:34.792Z,14.13
2019-03-30T12:59:24.979Z,14.17
2019-03-30T13:02:15.262Z,14.27
2019-03-30T13:07:56.545Z,15.10
2019-03-30T13:10:46.528Z,13.20
2019-03-30T13:13:36.955Z,14.70
2019-03-30T13:16:26.987Z,13.90
2019-03-30T13:19:17.215Z,13.80
2019-03-30T13:22:07.395Z,14.10
2019-03-30T13:24:57.640Z,13.43
2019-03-30T13:27:47.855Z,15.57
2019-03-30T13:30:37.869Z,15.27
2019-03-30T13:33:28.382Z,15.90
2019-03-30T13:36:20.230Z,16.10
2019-03-30T13:39:10.233Z,15.60
2019-03-30T13:41:59.613Z,16.17
2019-03-30T13:44:49.099Z,15.63
2019-03-30T13:47:39.447Z,14.63
2019-03-30T13:50:31.123Z,14.87
2019-03-30T13:53:22.100Z,13.93
2019-03-30T13:56:17.314Z,13.50
2019-03-30T13:59:03.596Z,14.77
2019-03-30T14:01:53.737Z,14.23
2019-03-30T14:04:46.352Z,14.10
2019-03-30T14:07:39.447Z,14.77
2019-03-30T14:10:29.622Z,14.87
2019-03-30T14:13:19.090Z,14.57
2019-03-30T14:16:08.666Z,14.73
2019-03-30T14:18:58.988Z,14.27
2019-03-30T14:21:48.716Z,14.77
2019-03-30T14:24:39.046Z,15.10
2019-03-30T14:27:28.799Z,14.93
2019-03-30T14:30:19.240Z,14.93
2019-03-30T14:33:09.537Z,14.50
2019-03-30T14:35:59.181Z,14.20
2019-03-30T14:38:49.378Z,14.10
2019-03-30T14:41:39.093Z,14.80
2019-03-30T14:44:28.839Z,15.27
2019-03-30T14:47:18.815Z,14.37
2019-03-30T14:50:09.185Z,14.80
2019-03-30T14:52:58.681Z,14.53
2019-03-30T14:55:50.045Z,13.87
2019-03-30T14:58:40.633Z,15.67
2019-03-30T15:01:30.904Z,14.70
2019-03-30T15:04:21.210Z,18.37
2019-03-30T15:07:11.396Z,21.47
2019-03-30T15:10:01.616Z,22.10
2019-03-30T15:12:52.593Z,19.20
2019-03-30T15:15:42.627Z,16.37
2019-03-30T15:18:32.376Z,15.07
2019-03-30T15:21:22.776Z,15.57
2019-03-30T15:24:12.944Z,16.60
2019-03-30T15:27:03.020Z,16.03
2019-03-30T15:29:53.368Z,16.20
2019-03-30T15:32:43.385Z,15.97
2019-03-30T15:35:33.523Z,18.07
2019-03-30T15:38:23.879Z,16.03
2019-03-30T15:41:13.183Z,17.50
2019-03-30T15:44:03.272Z,18.17
2019-03-30T15:46:55.426Z,16.70
2019-03-30T15:49:46.294Z,15.97
2019-03-30T15:52:35.807Z,16.93
2019-03-30T15:55:24.959Z,17.60
2019-03-30T15:58:14.395Z,16.63
2019-03-30T16:01:04.623Z,16.73
2019-03-30T16:03:54.614Z,18.27
2019-03-30T16:06:46.623Z,17.67
2019-03-30T16:09:37.305Z,17.63
2019-03-30T16:12:27.507Z,17.27
2019-03-30T16:15:17.786Z,16.30
2019-03-30T16:18:07.956Z,16.93
2019-03-30T16:20:58.115Z,16.03
2019-03-30T16:23:48.127Z,18.13
2019-03-30T16:26:42.184Z,17.97
2019-03-30T16:29:29.693Z,16.50
2019-03-30T16:32:19.015Z,18.07
2019-03-30T16:35:09.178Z,16.43
2019-03-30T16:37:58.607Z,17.13
2019-03-30T16:40:48.697Z,17.10
2019-03-30T16:43:38.388Z,16.83
2019-03-30T16:46:28.473Z,17.60
2019-03-30T16:49:17.699Z,17.60
2019-03-30T16:52:07.176Z,18.00
2019-03-30T16:54:57.215Z,17.00
2019-03-30T16:57:48.945Z,18.43
2019-03-30T17:00:55.126Z,18.03
2019-03-30T17:03:30.620Z,17.37
2019-03-30T17:06:20.125Z,17.50
2019-03-30T17:09:09.855Z,18.10
2019-03-30T17:11:59.667Z,16.40
2019-03-30T17:14:49.984Z,17.23
2019-03-30T17:17:40.039Z,17.80
2019-03-30T17:20:30.818Z,18.33
2019-03-30T17:23:20.271Z,17.03
2019-03-30T17:26:09.530Z,21.20
2019-03-30T17:28:59.974Z,21.70
2019-03-30T17:31:50.484Z,21.20
2019-03-30T17:34:40.772Z,21.30
2019-03-30T17:37:31.048Z,25.80
2019-03-30T17:40:21.180Z,25.37
2019-03-30T17:43:10.680Z,28.13
2019-03-30T17:46:00.143Z,23.03
2019-03-30T17:48:50.619Z,28.10
2019-03-30T17:51:40.853Z,22.57
2019-03-30T17:54:30.978Z,20.47
2019-03-30T17:57:20.829Z,19.53
2019-03-30T18:00:13.582Z,19.10
2019-03-30T18:03:04.140Z,20.70
2019-03-30T18:05:53.640Z,22.37
2019-03-30T18:08:43.335Z,23.40
2019-03-30T18:11:33.354Z,24.13
2019-03-30T18:14:22.928Z,21.60
2019-03-30T18:17:12.508Z,22.17
2019-03-30T18:20:01.675Z,24.23
2019-03-30T18:22:52.052Z,22.63
2019-03-30T18:25:42.252Z,24.40
2019-03-30T18:28:32.435Z,23.40
2019-03-30T18:31:22.627Z,22.53
2019-03-30T18:34:11.931Z,23.60
2019-03-30T18:37:02.536Z,25.93
2019-03-30T18:39:53.191Z,24.40
2019-03-30T18:42:42.791Z,25.77
2019-03-30T18:45:33.395Z,24.90
2019-03-30T18:48:23.435Z,25.03
2019-03-30T18:51:13.781Z,32.27
2019-03-30T18:54:04.224Z,30.13
2019-03-30T18:56:54.420Z,31.47
2019-03-30T18:59:44.423Z,30.67
2019-03-30T19:02:36.186Z,30.53
2019-03-30T19:05:25.610Z,32.77
2019-03-30T19:08:15.372Z,34.87
2019-03-30T19:11:05.800Z,32.43
2019-03-30T19:13:55.595Z,31.87
2019-03-30T19:16:45.403Z,33.00
2019-03-30T19:19:35.062Z,33.20
2019-03-30T19:22:26.458Z,31.40
2019-03-30T19:25:17.449Z,32.10
2019-03-30T19:28:12.600Z,32.60
2019-03-30T19:31:05.066Z,27.97
2019-03-30T19:33:57.348Z,30.87
2019-03-30T19:36:49.127Z,30.23
2019-03-30T19:39:41.715Z,29.80
2019-03-30T19:42:32.156Z,30.90
2019-03-30T19:45:22.349Z,26.10
2019-03-30T19:48:12.433Z,22.63
2019-03-30T19:51:02.426Z,24.00
2019-03-30T19:53:52.492Z,22.97
2019-03-30T19:56:42.815Z,23.50
2019-03-30T19:59:32.071Z,25.00
2019-03-30T20:02:22.383Z,22.27
2019-03-30T20:05:12.713Z,22.83
2019-03-30T20:08:11.943Z,21.90
2019-03-30T20:10:54.340Z,20.27
2019-03-30T20:13:44.393Z,21.60
2019-03-30T20:16:34.568Z,21.13
2019-03-30T20:19:25.210Z,22.47
2019-03-30T20:22:16.258Z,23.60
2019-03-30T20:25:07.687Z,21.80
2019-03-30T20:27:57.338Z,21.20
2019-03-30T20:30:47.452Z,21.47
2019-03-30T20:33:37.579Z,21.17
2019-03-30T20:36:27.046Z,21.37
2019-03-30T20:39:17.495Z,21.27
2019-03-30T20:42:07.623Z,22.60
2019-03-30T20:44:57.885Z,23.30
2019-03-30T20:47:47.443Z,23.10
2019-03-30T20:50:37.837Z,22.40
2019-03-30T20:53:27.802Z,22.70
2019-03-30T20:56:17.990Z,22.47
2019-03-30T20:59:07.815Z,24.87
2019-03-30T21:01:57.237Z,23.83
2019-03-30T21:04:47.318Z,24.03
2019-03-30T21:07:37.380Z,24.80
2019-03-30T21:10:26.896Z,22.60
2019-03-30T21:13:17.175Z,22.57
2019-03-30T21:16:06.869Z,22.03
2019-03-30T21:18:56.468Z,24.40
2019-03-30T21:21:46.595Z,23.40
2019-03-30T21:24:36.663Z,24.00
2019-03-30T21:27:28.127Z,24.27
2019-03-30T21:30:17.792Z,24.20
2019-03-30T21:33:07.489Z,22.73
2019-03-30T21:35:57.783Z,24.53
2019-03-30T21:38:47.951Z,24.07
2019-03-30T21:41:38.182Z,24.47
2019-03-30T21:44:27.712Z,23.83
2019-03-30T21:47:17.956Z,25.70
2019-03-30T21:50:09.904Z,24.93
2019-03-30T21:53:00.063Z,24.43
2019-03-30T21:55:50.239Z,23.50
2019-03-30T21:58:40.210Z,24.60
2019-03-30T22:01:30.156Z,25.20
2019-03-30T22:04:19.655Z,24.70
2019-03-30T22:07:09.753Z,25.27
2019-03-30T22:09:59.634Z,22.47
2019-03-30T22:12:49.448Z,24.70
2019-03-30T22:15:39.812Z,23.17
2019-03-30T22:18:29.932Z,24.63
2019-03-30T22:21:19.459Z,22.97
2019-03-30T22:24:09.500Z,22.93
2019-03-30T22:26:59.471Z,21.57
2019-03-30T22:29:49.033Z,21.30
2019-03-30T22:32:38.579Z,20.67
2019-03-30T22:35:28.082Z,20.77
2019-03-30T22:38:18.542Z,21.73
2019-03-30T22:41:08.807Z,20.50
2019-03-30T22:43:58.266Z,19.87
2019-03-30T22:46:48.348Z,20.70
2019-03-30T22:49:38.048Z,20.27
2019-03-30T22:52:28.140Z,19.07
2019-03-30T22:55:17.527Z,20.40
2019-03-30T22:58:07.982Z,19.50
2019-03-30T23:01:06.871Z,19.30
2019-03-30T23:03:56.924Z,18.70
2019-03-30T23:06:47.190Z,19.20
2019-03-30T23:09:37.204Z,18.30
2019-03-30T23:12:27.693Z,18.80
2019-03-30T23:15:17.979Z,17.73
2019-03-30T23:18:08.496Z,17.73
2019-03-30T23:20:57.855Z,18.73
2019-03-30T23:23:47.890Z,18.37
2019-03-30T23:26:38.117Z,19.73
2019-03-30T23:29:30.631Z,19.30
2019-03-30T23:32:20.955Z,18.27
2019-03-30T23:35:11.463Z,19.70
2019-03-30T23:38:00.746Z,22.17
2019-03-30T23:40:50.701Z,18.93
2019-03-30T23:43:40.675Z,19.70
2019-03-30T23:46:31.423Z,17.33
2019-03-30T23:49:21.814Z,18.90
2019-03-30T23:52:11.364Z,17.77
2019-03-30T23:55:01.687Z,17.47
2019-03-30T23:57:51.161Z,17.77
